sensor_id;sensor_type;location;lat;lon;timestamp;temperature;humidity
67862;DHT22;54665;51.462;6.698;2022-07-03T00:01:46;16.74;75.43
67862;DHT22;54665;51.462;6.698;2022-07-03T00:04:11;16.79;75.36
67862;DHT22;54665;51.462;6.698;2022-07-03T00:06:37;16.87;75.58
67862;DHT22;54665;51.462;6.698;2022-07-03T00:09:03;16.89;75.40
67862;DHT22;54665;51.462;6.698;2022-07-03T00:11:30;16.91;75.10
67862;DHT22;54665;51.462;6.698;2022-07-03T00:13:55;16.92;75.06
67862;DHT22;54665;51.462;6.698;2022-07-03T00:16:20;17.02;74.91
67862;DHT22;54665;51.462;6.698;2022-07-03T00:18:46;17.08;74.90
67862;DHT22;54665;51.462;6.698;2022-07-03T00:21:25;17.11;75.02
67862;DHT22;54665;51.462;6.698;2022-07-03T00:23:57;17.06;74.73
67862;DHT22;54665;51.462;6.698;2022-07-03T00:26:29;17.02;75.17
67862;DHT22;54665;51.462;6.698;2022-07-03T00:28:56;16.96;75.12
67862;DHT22;54665;51.462;6.698;2022-07-03T00:31:25;16.96;75.76
67862;DHT22;54665;51.462;6.698;2022-07-03T00:33:52;16.95;76.11
67862;DHT22;54665;51.462;6.698;2022-07-03T00:36:19;16.92;76.56
67862;DHT22;54665;51.462;6.698;2022-07-03T00:38:45;16.92;76.59
67862;DHT22;54665;51.462;6.698;2022-07-03T00:41:24;16.89;76.49
67862;DHT22;54665;51.462;6.698;2022-07-03T00:43:49;16.87;76.86
67862;DHT22;54665;51.462;6.698;2022-07-03T00:46:17;16.77;77.10
67862;DHT22;54665;51.462;6.698;2022-07-03T00:48:46;16.65;77.43
67862;DHT22;54665;51.462;6.698;2022-07-03T00:51:14;16.55;77.58
67862;DHT22;54665;51.462;6.698;2022-07-03T00:53:41;16.44;77.91
67862;DHT22;54665;51.462;6.698;2022-07-03T00:56:11;16.41;78.97
67862;DHT22;54665;51.462;6.698;2022-07-03T00:58:38;16.33;78.84
67862;DHT22;54665;51.462;6.698;2022-07-03T01:01:05;16.26;79.00
67862;DHT22;54665;51.462;6.698;2022-07-03T01:03:33;16.12;79.85
67862;DHT22;54665;51.462;6.698;2022-07-03T01:06:05;16.02;80.65
67862;DHT22;54665;51.462;6.698;2022-07-03T01:08:43;15.87;80.99
67862;DHT22;54665;51.462;6.698;2022-07-03T01:11:25;15.73;81.56
67862;DHT22;54665;51.462;6.698;2022-07-03T01:19:37;15.59;82.47
67862;DHT22;54665;51.462;6.698;2022-07-03T01:22:16;15.59;81.93
67862;DHT22;54665;51.462;6.698;2022-07-03T01:25:21;15.63;82.09
67862;DHT22;54665;51.462;6.698;2022-07-03T01:28:11;15.70;82.45
67862;DHT22;54665;51.462;6.698;2022-07-03T01:30:39;15.76;81.86
67862;DHT22;54665;51.462;6.698;2022-07-03T01:33:15;15.72;81.42
67862;DHT22;54665;51.462;6.698;2022-07-03T01:38:33;15.62;81.36
67862;DHT22;54665;51.462;6.698;2022-07-03T01:41:01;15.56;81.74
67862;DHT22;54665;51.462;6.698;2022-07-03T01:43:29;15.49;81.74
67862;DHT22;54665;51.462;6.698;2022-07-03T01:45:57;15.42;81.10
67862;DHT22;54665;51.462;6.698;2022-07-03T01:48:24;15.41;81.12
67862;DHT22;54665;51.462;6.698;2022-07-03T01:50:50;15.32;81.36
67862;DHT22;54665;51.462;6.698;2022-07-03T01:53:17;15.34;81.87
67862;DHT22;54665;51.462;6.698;2022-07-03T01:55:43;15.32;82.30
67862;DHT22;54665;51.462;6.698;2022-07-03T01:58:10;15.25;82.47
67862;DHT22;54665;51.462;6.698;2022-07-03T02:00:57;15.14;82.44
67862;DHT22;54665;51.462;6.698;2022-07-03T02:03:30;15.04;82.84
67862;DHT22;54665;51.462;6.698;2022-07-03T02:06:06;14.98;83.29
67862;DHT22;54665;51.462;6.698;2022-07-03T02:09:04;14.95;83.89
67862;DHT22;54665;51.462;6.698;2022-07-03T02:11:35;14.98;84.22
67862;DHT22;54665;51.462;6.698;2022-07-03T02:14:14;14.94;84.47
67862;DHT22;54665;51.462;6.698;2022-07-03T02:17:03;15.01;84.79
67862;DHT22;54665;51.462;6.698;2022-07-03T02:19:54;15.03;84.97
67862;DHT22;54665;51.462;6.698;2022-07-03T02:22:28;15.01;85.01
67862;DHT22;54665;51.462;6.698;2022-07-03T02:25:16;15.01;85.18
67862;DHT22;54665;51.462;6.698;2022-07-03T02:27:50;14.98;85.27
67862;DHT22;54665;51.462;6.698;2022-07-03T02:30:16;14.97;85.17
67862;DHT22;54665;51.462;6.698;2022-07-03T02:32:50;14.95;85.33
67862;DHT22;54665;51.462;6.698;2022-07-03T02:35:25;14.90;85.54
67862;DHT22;54665;51.462;6.698;2022-07-03T02:38:08;14.87;85.56
67862;DHT22;54665;51.462;6.698;2022-07-03T02:40:39;14.76;85.49
67862;DHT22;54665;51.462;6.698;2022-07-03T02:46:05;14.70;86.16
67862;DHT22;54665;51.462;6.698;2022-07-03T02:48:57;14.60;86.30
67862;DHT22;54665;51.462;6.698;2022-07-03T02:51:33;14.53;86.49
67862;DHT22;54665;51.462;6.698;2022-07-03T02:54:08;14.49;86.82
67862;DHT22;54665;51.462;6.698;2022-07-03T02:56:42;14.47;87.08
67862;DHT22;54665;51.462;6.698;2022-07-03T03:04:53;14.28;87.20
67862;DHT22;54665;51.462;6.698;2022-07-03T03:07:29;14.26;87.55
67862;DHT22;54665;51.462;6.698;2022-07-03T03:09:56;14.19;87.71
67862;DHT22;54665;51.462;6.698;2022-07-03T03:12:30;14.18;87.95
67862;DHT22;54665;51.462;6.698;2022-07-03T03:15:03;14.16;88.01
67862;DHT22;54665;51.462;6.698;2022-07-03T03:17:36;14.16;88.05
67862;DHT22;54665;51.462;6.698;2022-07-03T03:20:06;14.18;88.11
67862;DHT22;54665;51.462;6.698;2022-07-03T03:25:36;14.13;88.07
67862;DHT22;54665;51.462;6.698;2022-07-03T03:28:01;14.15;88.27
67862;DHT22;54665;51.462;6.698;2022-07-03T03:30:27;14.12;88.39
67862;DHT22;54665;51.462;6.698;2022-07-03T03:32:52;14.05;88.50
67862;DHT22;54665;51.462;6.698;2022-07-03T03:35:18;14.00;88.67
67862;DHT22;54665;51.462;6.698;2022-07-03T03:37:45;14.05;88.90
67862;DHT22;54665;51.462;6.698;2022-07-03T03:40:11;14.01;88.83
67862;DHT22;54665;51.462;6.698;2022-07-03T03:42:37;14.04;88.82
67862;DHT22;54665;51.462;6.698;2022-07-03T03:45:02;14.06;88.89
67862;DHT22;54665;51.462;6.698;2022-07-03T03:47:28;14.09;88.80
67862;DHT22;54665;51.462;6.698;2022-07-03T03:49:54;14.13;88.84
67862;DHT22;54665;51.462;6.698;2022-07-03T03:52:20;14.19;88.80
67862;DHT22;54665;51.462;6.698;2022-07-03T03:54:45;14.29;88.82
67862;DHT22;54665;51.462;6.698;2022-07-03T03:57:16;14.46;88.64
67862;DHT22;54665;51.462;6.698;2022-07-03T03:59:41;14.53;88.45
67862;DHT22;54665;51.462;6.698;2022-07-03T04:02:07;14.62;88.16
67862;DHT22;54665;51.462;6.698;2022-07-03T04:04:32;14.69;87.86
67862;DHT22;54665;51.462;6.698;2022-07-03T04:07:00;14.73;87.52
67862;DHT22;54665;51.462;6.698;2022-07-03T04:09:26;14.90;87.04
67862;DHT22;54665;51.462;6.698;2022-07-03T04:11:51;15.10;86.63
67862;DHT22;54665;51.462;6.698;2022-07-03T04:14:16;15.38;84.71
67862;DHT22;54665;51.462;6.698;2022-07-03T04:16:42;15.49;83.58
67862;DHT22;54665;51.462;6.698;2022-07-03T04:19:07;15.61;82.90
67862;DHT22;54665;51.462;6.698;2022-07-03T04:21:32;15.66;82.23
67862;DHT22;54665;51.462;6.698;2022-07-03T04:23:58;15.75;81.26
67862;DHT22;54665;51.462;6.698;2022-07-03T04:26:23;15.82;80.87
67862;DHT22;54665;51.462;6.698;2022-07-03T04:28:48;15.86;80.77
67862;DHT22;54665;51.462;6.698;2022-07-03T04:31:14;15.95;79.64
67862;DHT22;54665;51.462;6.698;2022-07-03T04:33:39;16.05;78.71
67862;DHT22;54665;51.462;6.698;2022-07-03T04:36:05;16.10;78.20
67862;DHT22;54665;51.462;6.698;2022-07-03T04:38:31;16.09;78.60
67862;DHT22;54665;51.462;6.698;2022-07-03T04:40:56;16.18;77.57
67862;DHT22;54665;51.462;6.698;2022-07-03T04:43:22;16.27;77.26
67862;DHT22;54665;51.462;6.698;2022-07-03T04:45:47;16.40;76.32
67862;DHT22;54665;51.462;6.698;2022-07-03T04:48:13;16.53;76.21
67862;DHT22;54665;51.462;6.698;2022-07-03T04:50:38;16.67;75.34
67862;DHT22;54665;51.462;6.698;2022-07-03T04:53:04;16.78;74.74
67862;DHT22;54665;51.462;6.698;2022-07-03T04:55:29;16.85;74.35
67862;DHT22;54665;51.462;6.698;2022-07-03T04:57:55;16.88;74.23
67862;DHT22;54665;51.462;6.698;2022-07-03T05:00:20;16.91;73.75
67862;DHT22;54665;51.462;6.698;2022-07-03T05:02:45;17.01;73.31
67862;DHT22;54665;51.462;6.698;2022-07-03T05:05:11;17.06;73.15
67862;DHT22;54665;51.462;6.698;2022-07-03T05:07:36;17.16;72.63
67862;DHT22;54665;51.462;6.698;2022-07-03T05:10:02;17.27;72.63
67862;DHT22;54665;51.462;6.698;2022-07-03T05:12:27;17.36;72.49
67862;DHT22;54665;51.462;6.698;2022-07-03T05:14:53;17.37;72.19
67862;DHT22;54665;51.462;6.698;2022-07-03T05:17:18;17.46;71.65
67862;DHT22;54665;51.462;6.698;2022-07-03T05:19:44;17.56;70.80
67862;DHT22;54665;51.462;6.698;2022-07-03T05:22:09;17.63;70.57
67862;DHT22;54665;51.462;6.698;2022-07-03T05:24:35;17.66;70.60
67862;DHT22;54665;51.462;6.698;2022-07-03T05:27:01;17.67;70.32
67862;DHT22;54665;51.462;6.698;2022-07-03T05:29:26;17.76;70.67
67862;DHT22;54665;51.462;6.698;2022-07-03T05:31:51;17.77;70.13
67862;DHT22;54665;51.462;6.698;2022-07-03T05:34:17;17.78;69.92
67862;DHT22;54665;51.462;6.698;2022-07-03T05:36:42;17.88;69.84
67862;DHT22;54665;51.462;6.698;2022-07-03T05:39:08;17.93;69.70
67862;DHT22;54665;51.462;6.698;2022-07-03T05:41:52;17.97;69.64
67862;DHT22;54665;51.462;6.698;2022-07-03T05:44:17;18.05;69.77
67862;DHT22;54665;51.462;6.698;2022-07-03T05:46:42;18.28;67.54
67862;DHT22;54665;51.462;6.698;2022-07-03T05:49:08;18.28;67.68
67862;DHT22;54665;51.462;6.698;2022-07-03T05:51:33;18.42;67.58
67862;DHT22;54665;51.462;6.698;2022-07-03T05:53:59;18.48;66.20
67862;DHT22;54665;51.462;6.698;2022-07-03T05:56:24;18.82;64.87
67862;DHT22;54665;51.462;6.698;2022-07-03T05:58:50;20.16;62.15
67862;DHT22;54665;51.462;6.698;2022-07-03T06:01:16;21.31;57.32
67862;DHT22;54665;51.462;6.698;2022-07-03T06:03:41;22.68;53.14
67862;DHT22;54665;51.462;6.698;2022-07-03T06:06:07;23.42;52.91
67862;DHT22;54665;51.462;6.698;2022-07-03T06:08:32;23.70;51.65
67862;DHT22;54665;51.462;6.698;2022-07-03T06:10:57;23.70;51.39
67862;DHT22;54665;51.462;6.698;2022-07-03T06:13:23;23.90;50.96
67862;DHT22;54665;51.462;6.698;2022-07-03T06:15:48;24.55;50.40
67862;DHT22;54665;51.462;6.698;2022-07-03T06:18:14;25.26;48.25
67862;DHT22;54665;51.462;6.698;2022-07-03T06:20:39;25.27;47.42
67862;DHT22;54665;51.462;6.698;2022-07-03T06:23:05;25.37;47.12
67862;DHT22;54665;51.462;6.698;2022-07-03T06:25:30;25.75;46.54
67862;DHT22;54665;51.462;6.698;2022-07-03T06:27:55;25.70;47.14
67862;DHT22;54665;51.462;6.698;2022-07-03T06:30:21;25.98;45.84
67862;DHT22;54665;51.462;6.698;2022-07-03T06:32:46;25.71;45.64
67862;DHT22;54665;51.462;6.698;2022-07-03T06:35:12;25.40;46.32
67862;DHT22;54665;51.462;6.698;2022-07-03T06:37:38;25.00;46.97
67862;DHT22;54665;51.462;6.698;2022-07-03T06:40:05;24.48;48.04
67862;DHT22;54665;51.462;6.698;2022-07-03T06:42:30;24.83;48.21
67862;DHT22;54665;51.462;6.698;2022-07-03T06:44:56;25.66;45.65
67862;DHT22;54665;51.462;6.698;2022-07-03T06:47:22;25.75;44.71
67862;DHT22;54665;51.462;6.698;2022-07-03T06:49:47;26.15;44.12
67862;DHT22;54665;51.462;6.698;2022-07-03T06:52:12;26.39;43.37
67862;DHT22;54665;51.462;6.698;2022-07-03T06:54:38;25.87;44.91
67862;DHT22;54665;51.462;6.698;2022-07-03T06:57:06;26.04;44.35
67862;DHT22;54665;51.462;6.698;2022-07-03T06:59:32;26.02;44.22
67862;DHT22;54665;51.462;6.698;2022-07-03T07:01:57;26.72;41.89
67862;DHT22;54665;51.462;6.698;2022-07-03T07:04:22;26.28;43.10
67862;DHT22;54665;51.462;6.698;2022-07-03T07:06:48;25.77;43.35
67862;DHT22;54665;51.462;6.698;2022-07-03T07:09:13;25.61;44.14
67862;DHT22;54665;51.462;6.698;2022-07-03T07:11:38;25.38;44.91
67862;DHT22;54665;51.462;6.698;2022-07-03T07:14:04;24.65;46.14
67862;DHT22;54665;51.462;6.698;2022-07-03T07:16:29;25.41;44.23
67862;DHT22;54665;51.462;6.698;2022-07-03T07:18:54;25.46;45.23
67862;DHT22;54665;51.462;6.698;2022-07-03T07:21:20;25.66;44.87
67862;DHT22;54665;51.462;6.698;2022-07-03T07:23:45;27.00;42.62
67862;DHT22;54665;51.462;6.698;2022-07-03T07:26:11;27.39;40.87
67862;DHT22;54665;51.462;6.698;2022-07-03T07:28:37;27.75;40.06
67862;DHT22;54665;51.462;6.698;2022-07-03T07:31:02;28.32;36.81
67862;DHT22;54665;51.462;6.698;2022-07-03T07:33:28;26.67;41.27
67862;DHT22;54665;51.462;6.698;2022-07-03T07:35:53;25.66;42.45
67862;DHT22;54665;51.462;6.698;2022-07-03T07:38:19;26.84;40.62
67862;DHT22;54665;51.462;6.698;2022-07-03T07:40:44;26.79;39.36
67862;DHT22;54665;51.462;6.698;2022-07-03T07:43:10;26.91;39.18
67862;DHT22;54665;51.462;6.698;2022-07-03T07:45:35;26.93;39.51
67862;DHT22;54665;51.462;6.698;2022-07-03T07:48:01;26.84;39.92
67862;DHT22;54665;51.462;6.698;2022-07-03T07:50:26;26.72;40.01
67862;DHT22;54665;51.462;6.698;2022-07-03T07:52:52;26.15;42.00
67862;DHT22;54665;51.462;6.698;2022-07-03T07:55:20;25.74;43.50
67862;DHT22;54665;51.462;6.698;2022-07-03T07:57:46;26.21;42.13
67862;DHT22;54665;51.462;6.698;2022-07-03T08:00:15;26.52;41.55
67862;DHT22;54665;51.462;6.698;2022-07-03T08:02:44;26.77;41.97
67862;DHT22;54665;51.462;6.698;2022-07-03T08:05:29;27.10;41.15
67862;DHT22;54665;51.462;6.698;2022-07-03T08:08:12;27.73;39.46
67862;DHT22;54665;51.462;6.698;2022-07-03T08:10:40;27.49;39.10
67862;DHT22;54665;51.462;6.698;2022-07-03T08:13:06;27.21;42.02
67862;DHT22;54665;51.462;6.698;2022-07-03T08:15:33;27.48;39.64
67862;DHT22;54665;51.462;6.698;2022-07-03T08:17:58;27.61;40.11
67862;DHT22;54665;51.462;6.698;2022-07-03T08:20:24;27.06;39.85
67862;DHT22;54665;51.462;6.698;2022-07-03T08:22:50;27.47;39.46
67862;DHT22;54665;51.462;6.698;2022-07-03T08:25:16;27.81;39.92
67862;DHT22;54665;51.462;6.698;2022-07-03T08:27:41;27.27;40.47
67862;DHT22;54665;51.462;6.698;2022-07-03T08:30:07;27.17;40.57
67862;DHT22;54665;51.462;6.698;2022-07-03T08:32:33;27.15;41.18
67862;DHT22;54665;51.462;6.698;2022-07-03T08:34:58;27.31;40.07
67862;DHT22;54665;51.462;6.698;2022-07-03T08:37:26;27.98;38.99
67862;DHT22;54665;51.462;6.698;2022-07-03T08:39:51;27.73;38.92
67862;DHT22;54665;51.462;6.698;2022-07-03T08:42:17;28.12;39.92
67862;DHT22;54665;51.462;6.698;2022-07-03T08:44:43;27.65;40.06
67862;DHT22;54665;51.462;6.698;2022-07-03T08:47:11;26.83;40.62
67862;DHT22;54665;51.462;6.698;2022-07-03T08:49:37;27.28;41.20
67862;DHT22;54665;51.462;6.698;2022-07-03T08:52:03;27.37;40.12
67862;DHT22;54665;51.462;6.698;2022-07-03T08:54:35;27.69;40.84
67862;DHT22;54665;51.462;6.698;2022-07-03T08:57:01;27.47;40.59
67862;DHT22;54665;51.462;6.698;2022-07-03T08:59:32;27.96;41.18
67862;DHT22;54665;51.462;6.698;2022-07-03T09:02:00;28.56;38.68
67862;DHT22;54665;51.462;6.698;2022-07-03T09:04:26;27.59;40.03
67862;DHT22;54665;51.462;6.698;2022-07-03T09:06:51;26.82;41.29
67862;DHT22;54665;51.462;6.698;2022-07-03T09:09:17;27.10;41.34
67862;DHT22;54665;51.462;6.698;2022-07-03T09:11:42;27.04;41.95
67862;DHT22;54665;51.462;6.698;2022-07-03T09:14:09;25.71;45.42
67862;DHT22;54665;51.462;6.698;2022-07-03T09:16:35;25.03;46.24
67862;DHT22;54665;51.462;6.698;2022-07-03T09:19:01;25.98;44.43
67862;DHT22;54665;51.462;6.698;2022-07-03T09:21:36;26.87;43.98
67862;DHT22;54665;51.462;6.698;2022-07-03T09:24:06;27.62;43.03
67862;DHT22;54665;51.462;6.698;2022-07-03T09:26:32;28.27;41.21
67862;DHT22;54665;51.462;6.698;2022-07-03T09:28:58;27.57;40.46
67862;DHT22;54665;51.462;6.698;2022-07-03T09:31:25;26.66;41.45
67862;DHT22;54665;51.462;6.698;2022-07-03T09:39:26;28.16;39.61
67862;DHT22;54665;51.462;6.698;2022-07-03T09:44:30;28.16;39.05
67862;DHT22;54665;51.462;6.698;2022-07-03T09:47:25;28.57;38.78
67862;DHT22;54665;51.462;6.698;2022-07-03T09:49:52;27.95;39.23
67862;DHT22;54665;51.462;6.698;2022-07-03T09:52:40;27.75;39.59
67862;DHT22;54665;51.462;6.698;2022-07-03T09:57:31;26.96;41.98
67862;DHT22;54665;51.462;6.698;2022-07-03T10:00:18;26.97;41.96
67862;DHT22;54665;51.462;6.698;2022-07-03T10:03:07;26.97;41.65
67862;DHT22;54665;51.462;6.698;2022-07-03T10:08:02;28.09;40.33
67862;DHT22;54665;51.462;6.698;2022-07-03T10:10:30;27.73;39.57
67862;DHT22;54665;51.462;6.698;2022-07-03T10:12:56;27.28;39.94
67862;DHT22;54665;51.462;6.698;2022-07-03T10:15:23;27.86;39.73
67862;DHT22;54665;51.462;6.698;2022-07-03T10:17:53;28.36;41.87
67862;DHT22;54665;51.462;6.698;2022-07-03T10:20:37;27.96;39.09
67862;DHT22;54665;51.462;6.698;2022-07-03T10:23:03;27.21;41.04
67862;DHT22;54665;51.462;6.698;2022-07-03T10:25:30;27.15;43.38
67862;DHT22;54665;51.462;6.698;2022-07-03T10:27:56;27.24;42.18
67862;DHT22;54665;51.462;6.698;2022-07-03T10:30:23;27.41;41.32
67862;DHT22;54665;51.462;6.698;2022-07-03T10:32:54;26.56;43.39
67862;DHT22;54665;51.462;6.698;2022-07-03T10:35:32;26.57;43.16
67862;DHT22;54665;51.462;6.698;2022-07-03T10:43:31;26.39;43.05
67862;DHT22;54665;51.462;6.698;2022-07-03T10:46:21;26.69;42.19
67862;DHT22;54665;51.462;6.698;2022-07-03T10:51:15;27.58;41.55
67862;DHT22;54665;51.462;6.698;2022-07-03T10:53:41;27.96;40.77
67862;DHT22;54665;51.462;6.698;2022-07-03T10:56:12;27.37;41.63
67862;DHT22;54665;51.462;6.698;2022-07-03T10:58:59;27.41;40.32
67862;DHT22;54665;51.462;6.698;2022-07-03T11:01:29;27.33;40.71
67862;DHT22;54665;51.462;6.698;2022-07-03T11:03:59;27.31;40.90
67862;DHT22;54665;51.462;6.698;2022-07-03T11:09:14;27.10;41.00
67862;DHT22;54665;51.462;6.698;2022-07-03T11:11:41;26.87;42.83
67862;DHT22;54665;51.462;6.698;2022-07-03T11:16:48;26.79;41.93
67862;DHT22;54665;51.462;6.698;2022-07-03T11:19:25;26.56;42.27
67862;DHT22;54665;51.462;6.698;2022-07-03T11:21:55;27.06;43.46
67862;DHT22;54665;51.462;6.698;2022-07-03T11:24:34;26.53;41.00
67862;DHT22;54665;51.462;6.698;2022-07-03T11:27:16;26.35;42.79
67862;DHT22;54665;51.462;6.698;2022-07-03T11:29:49;26.45;42.12
67862;DHT22;54665;51.462;6.698;2022-07-03T11:35:08;26.08;44.21
67862;DHT22;54665;51.462;6.698;2022-07-03T11:37:34;26.31;43.07
67862;DHT22;54665;51.462;6.698;2022-07-03T11:40:03;26.47;41.69
67862;DHT22;54665;51.462;6.698;2022-07-03T11:42:34;26.59;42.75
67862;DHT22;54665;51.462;6.698;2022-07-03T11:44:59;26.33;42.53
67862;DHT22;54665;51.462;6.698;2022-07-03T11:47:25;26.76;41.74
67862;DHT22;54665;51.462;6.698;2022-07-03T11:49:51;27.44;40.12
67862;DHT22;54665;51.462;6.698;2022-07-03T11:52:32;28.44;38.18
67862;DHT22;54665;51.462;6.698;2022-07-03T11:54:58;28.77;39.33
67862;DHT22;54665;51.462;6.698;2022-07-03T11:57:23;27.82;38.45
67862;DHT22;54665;51.462;6.698;2022-07-03T11:59:51;27.45;38.74
67862;DHT22;54665;51.462;6.698;2022-07-03T12:02:19;27.04;40.80
67862;DHT22;54665;51.462;6.698;2022-07-03T12:04:44;27.39;40.46
67862;DHT22;54665;51.462;6.698;2022-07-03T12:07:10;26.75;40.29
67862;DHT22;54665;51.462;6.698;2022-07-03T12:09:36;26.28;42.90
67862;DHT22;54665;51.462;6.698;2022-07-03T12:14:47;27.99;41.23
67862;DHT22;54665;51.462;6.698;2022-07-03T12:17:21;28.53;37.41
67862;DHT22;54665;51.462;6.698;2022-07-03T12:19:48;27.86;38.41
67862;DHT22;54665;51.462;6.698;2022-07-03T12:25:14;27.62;39.66
67862;DHT22;54665;51.462;6.698;2022-07-03T12:27:42;26.88;40.54
67862;DHT22;54665;51.462;6.698;2022-07-03T12:30:09;27.54;41.80
67862;DHT22;54665;51.462;6.698;2022-07-03T12:32:36;28.13;38.70
67862;DHT22;54665;51.462;6.698;2022-07-03T12:35:03;27.93;38.60
67862;DHT22;54665;51.462;6.698;2022-07-03T12:39:59;27.90;38.10
67862;DHT22;54665;51.462;6.698;2022-07-03T12:42:24;27.48;38.80
67862;DHT22;54665;51.462;6.698;2022-07-03T12:45:03;27.34;39.69
67862;DHT22;54665;51.462;6.698;2022-07-03T12:47:30;27.15;39.33
67862;DHT22;54665;51.462;6.698;2022-07-03T12:50:04;26.97;41.81
67862;DHT22;54665;51.462;6.698;2022-07-03T12:52:31;27.20;39.60
67862;DHT22;54665;51.462;6.698;2022-07-03T12:54:58;27.30;39.32
67862;DHT22;54665;51.462;6.698;2022-07-03T12:57:24;27.39;39.86
67862;DHT22;54665;51.462;6.698;2022-07-03T13:00:13;27.28;39.26
67862;DHT22;54665;51.462;6.698;2022-07-03T13:02:49;26.98;40.00
67862;DHT22;54665;51.462;6.698;2022-07-03T13:05:16;26.67;41.86
67862;DHT22;54665;51.462;6.698;2022-07-03T13:07:43;27.01;42.20
67862;DHT22;54665;51.462;6.698;2022-07-03T13:10:09;26.93;40.10
67862;DHT22;54665;51.462;6.698;2022-07-03T13:12:45;26.94;40.74
67862;DHT22;54665;51.462;6.698;2022-07-03T13:15:11;27.21;40.35
67862;DHT22;54665;51.462;6.698;2022-07-03T13:20:21;26.76;42.31
67862;DHT22;54665;51.462;6.698;2022-07-03T13:22:55;27.01;41.92
67862;DHT22;54665;51.462;6.698;2022-07-03T13:25:21;26.82;42.51
67862;DHT22;54665;51.462;6.698;2022-07-03T13:27:49;27.75;39.43
67862;DHT22;54665;51.462;6.698;2022-07-03T13:30:16;28.37;40.38
67862;DHT22;54665;51.462;6.698;2022-07-03T13:32:42;27.68;38.75
67862;DHT22;54665;51.462;6.698;2022-07-03T13:35:09;26.80;41.25
67862;DHT22;54665;51.462;6.698;2022-07-03T13:37:34;26.25;42.22
67862;DHT22;54665;51.462;6.698;2022-07-03T13:40:04;26.33;42.06
67862;DHT22;54665;51.462;6.698;2022-07-03T13:42:30;26.50;40.92
67862;DHT22;54665;51.462;6.698;2022-07-03T13:44:56;26.47;43.18
67862;DHT22;54665;51.462;6.698;2022-07-03T13:47:21;26.61;41.48
67862;DHT22;54665;51.462;6.698;2022-07-03T13:49:47;27.01;42.69
67862;DHT22;54665;51.462;6.698;2022-07-03T13:52:12;26.42;42.87
67862;DHT22;54665;51.462;6.698;2022-07-03T13:54:37;25.91;43.40
67862;DHT22;54665;51.462;6.698;2022-07-03T13:57:03;25.71;42.83
67862;DHT22;54665;51.462;6.698;2022-07-03T13:59:29;25.97;43.22
67862;DHT22;54665;51.462;6.698;2022-07-03T14:01:58;27.11;41.08
67862;DHT22;54665;51.462;6.698;2022-07-03T14:04:23;26.88;40.44
67862;DHT22;54665;51.462;6.698;2022-07-03T14:06:49;26.84;45.60
67862;DHT22;54665;51.462;6.698;2022-07-03T14:09:15;26.60;42.55
67862;DHT22;54665;51.462;6.698;2022-07-03T14:11:40;25.98;43.29
67862;DHT22;54665;51.462;6.698;2022-07-03T14:14:06;25.28;44.49
67862;DHT22;54665;51.462;6.698;2022-07-03T14:16:32;25.05;45.50
67862;DHT22;54665;51.462;6.698;2022-07-03T14:18:58;25.10;45.69
67862;DHT22;54665;51.462;6.698;2022-07-03T14:21:23;25.56;44.98
67862;DHT22;54665;51.462;6.698;2022-07-03T14:23:49;25.64;44.52
67862;DHT22;54665;51.462;6.698;2022-07-03T14:26:14;25.80;43.97
67862;DHT22;54665;51.462;6.698;2022-07-03T14:28:39;26.26;41.39
67862;DHT22;54665;51.462;6.698;2022-07-03T14:31:23;26.86;41.78
67862;DHT22;54665;51.462;6.698;2022-07-03T14:33:49;27.41;40.39
67862;DHT22;54665;51.462;6.698;2022-07-03T14:36:15;27.70;41.14
67862;DHT22;54665;51.462;6.698;2022-07-03T14:38:41;26.77;40.94
67862;DHT22;54665;51.462;6.698;2022-07-03T14:41:06;26.40;43.10
67862;DHT22;54665;51.462;6.698;2022-07-03T14:43:31;26.45;42.69
67862;DHT22;54665;51.462;6.698;2022-07-03T14:45:58;26.16;41.75
67862;DHT22;54665;51.462;6.698;2022-07-03T14:48:23;26.60;39.79
67862;DHT22;54665;51.462;6.698;2022-07-03T14:50:52;27.62;43.20
67862;DHT22;54665;51.462;6.698;2022-07-03T14:53:18;26.91;39.50
67862;DHT22;54665;51.462;6.698;2022-07-03T14:55:45;26.18;41.37
67862;DHT22;54665;51.462;6.698;2022-07-03T14:58:21;25.41;43.74
67862;DHT22;54665;51.462;6.698;2022-07-03T15:00:53;25.07;44.53
67862;DHT22;54665;51.462;6.698;2022-07-03T15:03:30;24.71;44.29
67862;DHT22;54665;51.462;6.698;2022-07-03T15:05:58;24.47;45.84
67862;DHT22;54665;51.462;6.698;2022-07-03T15:10:56;24.38;45.55
67862;DHT22;54665;51.462;6.698;2022-07-03T15:13:27;24.38;45.83
67862;DHT22;54665;51.462;6.698;2022-07-03T15:15:53;24.28;46.22
67862;DHT22;54665;51.462;6.698;2022-07-03T15:18:20;24.29;46.80
67862;DHT22;54665;51.462;6.698;2022-07-03T15:20:51;24.24;47.17
67862;DHT22;54665;51.462;6.698;2022-07-03T15:23:18;24.22;47.36
67862;DHT22;54665;51.462;6.698;2022-07-03T15:25:45;24.27;47.13
67862;DHT22;54665;51.462;6.698;2022-07-03T15:28:11;25.68;44.00
67862;DHT22;54665;51.462;6.698;2022-07-03T15:30:38;26.15;42.47
67862;DHT22;54665;51.462;6.698;2022-07-03T15:33:09;26.87;41.54
67862;DHT22;54665;51.462;6.698;2022-07-03T15:35:35;26.80;41.35
67862;DHT22;54665;51.462;6.698;2022-07-03T15:38:10;27.30;40.69
67862;DHT22;54665;51.462;6.698;2022-07-03T15:51:22;25.67;41.87
67862;DHT22;54665;51.462;6.698;2022-07-03T15:53:56;24.77;43.66
67862;DHT22;54665;51.462;6.698;2022-07-03T15:56:35;25.84;43.16
67862;DHT22;54665;51.462;6.698;2022-07-03T15:59:06;26.66;40.91
67862;DHT22;54665;51.462;6.698;2022-07-03T16:01:38;26.88;41.50
67862;DHT22;54665;51.462;6.698;2022-07-03T16:04:35;25.84;43.42
67862;DHT22;54665;51.462;6.698;2022-07-03T16:07:02;24.89;44.29
67862;DHT22;54665;51.462;6.698;2022-07-03T16:09:29;24.42;45.25
67862;DHT22;54665;51.462;6.698;2022-07-03T16:11:54;24.01;45.96
67862;DHT22;54665;51.462;6.698;2022-07-03T16:14:21;24.79;44.59
67862;DHT22;54665;51.462;6.698;2022-07-03T16:16:48;25.34;42.82
67862;DHT22;54665;51.462;6.698;2022-07-03T16:19:14;25.99;41.07
67862;DHT22;54665;51.462;6.698;2022-07-03T16:21:40;26.21;40.01
67862;DHT22;54665;51.462;6.698;2022-07-03T16:24:07;25.73;41.22
67862;DHT22;54665;51.462;6.698;2022-07-03T16:26:35;25.12;42.63
67862;DHT22;54665;51.462;6.698;2022-07-03T16:29:01;24.72;43.64
67862;DHT22;54665;51.462;6.698;2022-07-03T16:31:36;25.06;40.98
67862;DHT22;54665;51.462;6.698;2022-07-03T16:34:12;25.22;41.44
67862;DHT22;54665;51.462;6.698;2022-07-03T16:36:43;24.79;42.35
67862;DHT22;54665;51.462;6.698;2022-07-03T16:39:17;24.52;42.47
67862;DHT22;54665;51.462;6.698;2022-07-03T16:41:45;24.69;41.68
67862;DHT22;54665;51.462;6.698;2022-07-03T16:44:18;25.03;42.60
67862;DHT22;54665;51.462;6.698;2022-07-03T16:46:48;24.68;42.63
67862;DHT22;54665;51.462;6.698;2022-07-03T16:49:14;24.75;41.75
67862;DHT22;54665;51.462;6.698;2022-07-03T16:51:47;24.29;42.28
67862;DHT22;54665;51.462;6.698;2022-07-03T16:54:17;24.13;42.51